Weather at Flying W Airport

Public forecast

Using degrees Fahrenheit for public forecast. Weather courtesy of forecast.io.

Closest aviation weather report (METAR) to Flying W Airport

Closest report is Dyess Air Force Base, 22.5 nm (41.6 km) NE. Retrieved 2021/07/27 23:56 UTC (44 minutes ago):

KDYS 272356Z AUTO 09009KT 10SM CLR 36/15 A2997 RMK AO2 SLP098 T03590145 10382 20357 55010

Closest aviation forecast (TAF) to Flying W Airport

Closest forecast is Dyess Air Force Base, 22.5 nm (41.6 km) NE. Retrieved 2021/07/27 22:42 UTC (2 hours ago):

TAF KDYS 272235Z 2722/2902 VRB06KT 9999 SCT150 QNH2994INS BECMG 2723/2724 VRB06KT 9999 BKN100 QNH2993INS BECMG 2818/2819 14006KT 9999 VCTS BKN080CB QNH2999INS BECMG 2821/2822 10006KT 9000 -TSRA SCT100 BKN200CB QNH2994INS BECMG 2822/2823 10006KT 9999 NSW SCT090 QNH2991INS TX38/2820Z TN25/2812Z